sensor_id;sensor_type;location;lat;lon;timestamp;temperature;humidity
8832;DHT22;4452;50.756;4.472;2023-06-04T00:00:43;14.30;96.90
8832;DHT22;4452;50.756;4.472;2023-06-04T00:03:09;14.10;96.90
8832;DHT22;4452;50.756;4.472;2023-06-04T00:05:34;14.30;97.10
8832;DHT22;4452;50.756;4.472;2023-06-04T00:08:00;14.20;97.10
8832;DHT22;4452;50.756;4.472;2023-06-04T00:10:25;14.30;97.10
8832;DHT22;4452;50.756;4.472;2023-06-04T00:12:51;14.00;97.10
8832;DHT22;4452;50.756;4.472;2023-06-04T00:15:17;14.00;96.90
8832;DHT22;4452;50.756;4.472;2023-06-04T00:17:42;14.30;97.20
8832;DHT22;4452;50.756;4.472;2023-06-04T00:20:09;13.90;96.90
8832;DHT22;4452;50.756;4.472;2023-06-04T00:22:34;13.90;97.20
8832;DHT22;4452;50.756;4.472;2023-06-04T00:25:00;13.70;97.10
8832;DHT22;4452;50.756;4.472;2023-06-04T00:27:26;13.80;97.40
8832;DHT22;4452;50.756;4.472;2023-06-04T00:29:51;13.70;97.30
8832;DHT22;4452;50.756;4.472;2023-06-04T00:32:17;13.70;97.80
8832;DHT22;4452;50.756;4.472;2023-06-04T00:34:43;13.70;97.40
8832;DHT22;4452;50.756;4.472;2023-06-04T00:37:08;13.70;97.80
8832;DHT22;4452;50.756;4.472;2023-06-04T00:39:34;14.10;98.00
8832;DHT22;4452;50.756;4.472;2023-06-04T00:42:00;13.50;97.70
8832;DHT22;4452;50.756;4.472;2023-06-04T00:44:26;13.60;97.70
8832;DHT22;4452;50.756;4.472;2023-06-04T00:46:52;13.50;97.70
8832;DHT22;4452;50.756;4.472;2023-06-04T00:49:19;13.50;97.70
8832;DHT22;4452;50.756;4.472;2023-06-04T00:51:45;13.60;98.10
8832;DHT22;4452;50.756;4.472;2023-06-04T00:54:12;13.40;98.30
8832;DHT22;4452;50.756;4.472;2023-06-04T00:56:38;13.40;98.60
8832;DHT22;4452;50.756;4.472;2023-06-04T00:59:05;13.30;98.50
8832;DHT22;4452;50.756;4.472;2023-06-04T01:01:53;13.40;98.30
8832;DHT22;4452;50.756;4.472;2023-06-04T01:04:30;13.20;98.50
8832;DHT22;4452;50.756;4.472;2023-06-04T01:07:02;13.30;98.30
8832;DHT22;4452;50.756;4.472;2023-06-04T01:09:28;13.80;98.60
8832;DHT22;4452;50.756;4.472;2023-06-04T01:11:54;13.30;98.60
8832;DHT22;4452;50.756;4.472;2023-06-04T01:14:23;13.60;99.30
8832;DHT22;4452;50.756;4.472;2023-06-04T01:16:55;13.20;99.10
8832;DHT22;4452;50.756;4.472;2023-06-04T01:25:07;13.00;99.40
8832;DHT22;4452;50.756;4.472;2023-06-04T01:27:35;13.00;99.30
8832;DHT22;4452;50.756;4.472;2023-06-04T01:30:01;12.90;99.70
8832;DHT22;4452;50.756;4.472;2023-06-04T01:32:29;13.00;99.80
8832;DHT22;4452;50.756;4.472;2023-06-04T01:34:55;13.20;99.90
8832;DHT22;4452;50.756;4.472;2023-06-04T01:37:21;12.80;99.90
8832;DHT22;4452;50.756;4.472;2023-06-04T01:39:47;13.10;99.90
8832;DHT22;4452;50.756;4.472;2023-06-04T01:42:12;12.80;99.90
8832;DHT22;4452;50.756;4.472;2023-06-04T01:44:38;12.70;99.90
8832;DHT22;4452;50.756;4.472;2023-06-04T01:47:04;12.80;99.90
8832;DHT22;4452;50.756;4.472;2023-06-04T01:49:29;12.60;99.90
8832;DHT22;4452;50.756;4.472;2023-06-04T01:51:55;12.80;99.90
8832;DHT22;4452;50.756;4.472;2023-06-04T01:54:21;12.50;99.90
8832;DHT22;4452;50.756;4.472;2023-06-04T01:56:47;12.50;99.90
8832;DHT22;4452;50.756;4.472;2023-06-04T01:59:14;12.60;99.90
8832;DHT22;4452;50.756;4.472;2023-06-04T02:01:41;12.60;99.90
8832;DHT22;4452;50.756;4.472;2023-06-04T02:04:07;12.20;99.90
8832;DHT22;4452;50.756;4.472;2023-06-04T02:06:33;12.50;99.90
8832;DHT22;4452;50.756;4.472;2023-06-04T02:08:59;12.50;99.90
8832;DHT22;4452;50.756;4.472;2023-06-04T02:11:26;12.20;99.90
8832;DHT22;4452;50.756;4.472;2023-06-04T02:13:51;12.20;99.90
8832;DHT22;4452;50.756;4.472;2023-06-04T02:16:17;12.30;99.90
8832;DHT22;4452;50.756;4.472;2023-06-04T02:18:42;12.10;99.90
8832;DHT22;4452;50.756;4.472;2023-06-04T02:21:08;12.20;99.90
8832;DHT22;4452;50.756;4.472;2023-06-04T02:23:34;12.00;99.90
8832;DHT22;4452;50.756;4.472;2023-06-04T02:25:59;12.30;99.90
8832;DHT22;4452;50.756;4.472;2023-06-04T02:28:25;12.40;99.90
8832;DHT22;4452;50.756;4.472;2023-06-04T02:30:51;11.90;99.90
8832;DHT22;4452;50.756;4.472;2023-06-04T02:33:17;12.20;99.90
8832;DHT22;4452;50.756;4.472;2023-06-04T02:35:43;11.90;99.90
8832;DHT22;4452;50.756;4.472;2023-06-04T02:38:08;11.90;99.90
8832;DHT22;4452;50.756;4.472;2023-06-04T02:40:34;11.90;99.90
8832;DHT22;4452;50.756;4.472;2023-06-04T02:43:00;11.90;99.90
8832;DHT22;4452;50.756;4.472;2023-06-04T02:45:25;11.90;99.90
8832;DHT22;4452;50.756;4.472;2023-06-04T02:47:51;12.00;99.90
8832;DHT22;4452;50.756;4.472;2023-06-04T02:50:17;11.60;99.90
8832;DHT22;4452;50.756;4.472;2023-06-04T02:52:43;11.60;99.90
8832;DHT22;4452;50.756;4.472;2023-06-04T02:55:09;11.60;99.90
8832;DHT22;4452;50.756;4.472;2023-06-04T02:57:35;11.70;99.90
8832;DHT22;4452;50.756;4.472;2023-06-04T03:00:01;11.70;99.90
8832;DHT22;4452;50.756;4.472;2023-06-04T03:02:36;11.80;99.90
8832;DHT22;4452;50.756;4.472;2023-06-04T03:05:01;11.80;99.90
8832;DHT22;4452;50.756;4.472;2023-06-04T03:07:27;11.50;99.90
8832;DHT22;4452;50.756;4.472;2023-06-04T03:09:53;11.30;99.90
8832;DHT22;4452;50.756;4.472;2023-06-04T03:12:18;11.40;99.90
8832;DHT22;4452;50.756;4.472;2023-06-04T03:14:44;11.60;99.90
8832;DHT22;4452;50.756;4.472;2023-06-04T03:17:09;11.30;99.90
8832;DHT22;4452;50.756;4.472;2023-06-04T03:19:39;11.60;99.90
8832;DHT22;4452;50.756;4.472;2023-06-04T03:22:06;11.20;99.90
8832;DHT22;4452;50.756;4.472;2023-06-04T03:24:34;11.20;99.90
8832;DHT22;4452;50.756;4.472;2023-06-04T03:27:00;11.10;99.90
8832;DHT22;4452;50.756;4.472;2023-06-04T03:29:26;11.10;99.90
8832;DHT22;4452;50.756;4.472;2023-06-04T03:31:52;11.40;99.90
8832;DHT22;4452;50.756;4.472;2023-06-04T03:34:18;11.00;99.90
8832;DHT22;4452;50.756;4.472;2023-06-04T03:36:43;11.40;99.90
8832;DHT22;4452;50.756;4.472;2023-06-04T03:39:10;11.00;99.90
8832;DHT22;4452;50.756;4.472;2023-06-04T03:41:36;11.30;99.90
8832;DHT22;4452;50.756;4.472;2023-06-04T03:44:01;10.90;99.90
8832;DHT22;4452;50.756;4.472;2023-06-04T03:46:27;11.00;99.90
8832;DHT22;4452;50.756;4.472;2023-06-04T03:48:57;11.00;99.90
8832;DHT22;4452;50.756;4.472;2023-06-04T03:51:22;10.90;99.90
8832;DHT22;4452;50.756;4.472;2023-06-04T03:53:48;10.90;99.90
8832;DHT22;4452;50.756;4.472;2023-06-04T03:56:13;10.90;99.90
8832;DHT22;4452;50.756;4.472;2023-06-04T03:58:39;11.30;99.90
8832;DHT22;4452;50.756;4.472;2023-06-04T04:01:05;10.90;99.90
8832;DHT22;4452;50.756;4.472;2023-06-04T04:03:33;10.90;99.90
8832;DHT22;4452;50.756;4.472;2023-06-04T04:06:00;10.80;99.90
8832;DHT22;4452;50.756;4.472;2023-06-04T04:08:26;10.90;99.90
8832;DHT22;4452;50.756;4.472;2023-06-04T04:10:55;11.10;99.90
8832;DHT22;4452;50.756;4.472;2023-06-04T04:13:21;10.90;99.90
8832;DHT22;4452;50.756;4.472;2023-06-04T04:15:46;10.90;99.90
8832;DHT22;4452;50.756;4.472;2023-06-04T04:18:12;11.30;99.90
8832;DHT22;4452;50.756;4.472;2023-06-04T04:20:38;10.90;99.90
8832;DHT22;4452;50.756;4.472;2023-06-04T04:23:04;10.90;99.90
8832;DHT22;4452;50.756;4.472;2023-06-04T04:25:31;11.00;99.90
8832;DHT22;4452;50.756;4.472;2023-06-04T04:27:57;11.20;99.90
8832;DHT22;4452;50.756;4.472;2023-06-04T04:30:25;11.00;99.90
8832;DHT22;4452;50.756;4.472;2023-06-04T04:32:51;11.60;99.90
8832;DHT22;4452;50.756;4.472;2023-06-04T04:35:17;11.10;99.90
8832;DHT22;4452;50.756;4.472;2023-06-04T04:37:44;11.40;99.90
8832;DHT22;4452;50.756;4.472;2023-06-04T04:40:10;11.40;99.90
8832;DHT22;4452;50.756;4.472;2023-06-04T04:42:37;11.30;99.90
8832;DHT22;4452;50.756;4.472;2023-06-04T04:45:03;11.60;99.90
8832;DHT22;4452;50.756;4.472;2023-06-04T04:47:29;11.30;99.90
8832;DHT22;4452;50.756;4.472;2023-06-04T04:49:55;11.30;99.90
8832;DHT22;4452;50.756;4.472;2023-06-04T04:52:21;11.70;99.90
8832;DHT22;4452;50.756;4.472;2023-06-04T04:54:46;11.80;99.90
8832;DHT22;4452;50.756;4.472;2023-06-04T04:57:12;11.50;99.90
8832;DHT22;4452;50.756;4.472;2023-06-04T04:59:37;11.70;99.90
8832;DHT22;4452;50.756;4.472;2023-06-04T05:02:03;11.70;99.90
8832;DHT22;4452;50.756;4.472;2023-06-04T05:04:29;11.70;99.90
8832;DHT22;4452;50.756;4.472;2023-06-04T05:06:55;12.10;99.90
8832;DHT22;4452;50.756;4.472;2023-06-04T05:09:20;11.90;99.90
8832;DHT22;4452;50.756;4.472;2023-06-04T05:11:46;11.90;99.90
8832;DHT22;4452;50.756;4.472;2023-06-04T05:14:12;12.00;99.90
8832;DHT22;4452;50.756;4.472;2023-06-04T05:16:38;12.00;99.90
8832;DHT22;4452;50.756;4.472;2023-06-04T05:19:06;11.90;99.90
8832;DHT22;4452;50.756;4.472;2023-06-04T05:21:31;12.20;99.90
8832;DHT22;4452;50.756;4.472;2023-06-04T05:23:57;12.40;99.90
8832;DHT22;4452;50.756;4.472;2023-06-04T05:26:23;12.70;99.90
8832;DHT22;4452;50.756;4.472;2023-06-04T05:28:51;12.40;99.90
8832;DHT22;4452;50.756;4.472;2023-06-04T05:31:17;12.70;99.90
8832;DHT22;4452;50.756;4.472;2023-06-04T05:33:43;12.60;99.90
8832;DHT22;4452;50.756;4.472;2023-06-04T05:36:09;12.60;99.90
8832;DHT22;4452;50.756;4.472;2023-06-04T05:38:35;13.00;99.90
8832;DHT22;4452;50.756;4.472;2023-06-04T05:41:01;12.80;99.90
8832;DHT22;4452;50.756;4.472;2023-06-04T05:43:27;13.00;99.90
8832;DHT22;4452;50.756;4.472;2023-06-04T05:45:53;13.40;99.90
8832;DHT22;4452;50.756;4.472;2023-06-04T05:48:19;12.80;99.90
8832;DHT22;4452;50.756;4.472;2023-06-04T05:50:44;13.20;99.90
8832;DHT22;4452;50.756;4.472;2023-06-04T05:53:10;12.90;99.90
8832;DHT22;4452;50.756;4.472;2023-06-04T05:55:37;13.20;99.90
8832;DHT22;4452;50.756;4.472;2023-06-04T05:58:05;13.20;99.90
8832;DHT22;4452;50.756;4.472;2023-06-04T06:00:33;13.30;99.90
8832;DHT22;4452;50.756;4.472;2023-06-04T06:03:01;13.20;99.90
8832;DHT22;4452;50.756;4.472;2023-06-04T06:05:29;13.40;99.90
8832;DHT22;4452;50.756;4.472;2023-06-04T06:07:57;13.50;99.90
8832;DHT22;4452;50.756;4.472;2023-06-04T06:10:26;13.50;99.90
8832;DHT22;4452;50.756;4.472;2023-06-04T06:12:51;13.50;99.90
8832;DHT22;4452;50.756;4.472;2023-06-04T06:15:17;14.10;99.90
8832;DHT22;4452;50.756;4.472;2023-06-04T06:17:43;13.70;99.90
8832;DHT22;4452;50.756;4.472;2023-06-04T06:20:09;13.80;99.90
8832;DHT22;4452;50.756;4.472;2023-06-04T06:22:35;13.80;99.90
8832;DHT22;4452;50.756;4.472;2023-06-04T06:25:02;14.00;99.90
8832;DHT22;4452;50.756;4.472;2023-06-04T06:27:28;14.20;99.90
8832;DHT22;4452;50.756;4.472;2023-06-04T06:29:53;14.00;99.90
8832;DHT22;4452;50.756;4.472;2023-06-04T06:32:19;14.40;99.90
8832;DHT22;4452;50.756;4.472;2023-06-04T06:34:45;14.20;99.90
8832;DHT22;4452;50.756;4.472;2023-06-04T06:37:11;15.00;99.90
8832;DHT22;4452;50.756;4.472;2023-06-04T06:39:36;14.50;99.90
8832;DHT22;4452;50.756;4.472;2023-06-04T06:42:02;14.40;99.90
8832;DHT22;4452;50.756;4.472;2023-06-04T06:44:28;14.50;99.90
8832;DHT22;4452;50.756;4.472;2023-06-04T06:46:53;14.60;99.90
8832;DHT22;4452;50.756;4.472;2023-06-04T06:49:19;14.70;99.90
8832;DHT22;4452;50.756;4.472;2023-06-04T06:51:45;14.50;99.90
8832;DHT22;4452;50.756;4.472;2023-06-04T06:54:10;14.80;99.90
8832;DHT22;4452;50.756;4.472;2023-06-04T06:56:36;14.90;99.90
8832;DHT22;4452;50.756;4.472;2023-06-04T06:59:02;15.00;99.90
8832;DHT22;4452;50.756;4.472;2023-06-04T07:01:28;15.20;99.90
8832;DHT22;4452;50.756;4.472;2023-06-04T07:03:53;15.30;99.90
8832;DHT22;4452;50.756;4.472;2023-06-04T07:06:19;15.50;99.90
8832;DHT22;4452;50.756;4.472;2023-06-04T07:08:44;15.40;99.90
8832;DHT22;4452;50.756;4.472;2023-06-04T07:11:13;15.40;99.90
8832;DHT22;4452;50.756;4.472;2023-06-04T07:13:39;15.60;99.90
8832;DHT22;4452;50.756;4.472;2023-06-04T07:16:05;15.80;99.90
8832;DHT22;4452;50.756;4.472;2023-06-04T07:18:32;16.00;99.90
8832;DHT22;4452;50.756;4.472;2023-06-04T07:20:58;16.10;99.90
8832;DHT22;4452;50.756;4.472;2023-06-04T07:23:24;15.90;99.90
8832;DHT22;4452;50.756;4.472;2023-06-04T07:25:50;16.00;99.90
8832;DHT22;4452;50.756;4.472;2023-06-04T07:28:16;16.20;99.90
8832;DHT22;4452;50.756;4.472;2023-06-04T07:30:41;16.40;99.90
8832;DHT22;4452;50.756;4.472;2023-06-04T07:33:08;16.40;99.90
8832;DHT22;4452;50.756;4.472;2023-06-04T07:35:33;16.60;99.90
8832;DHT22;4452;50.756;4.472;2023-06-04T07:37:59;16.50;99.90
8832;DHT22;4452;50.756;4.472;2023-06-04T07:40:25;16.60;99.90
8832;DHT22;4452;50.756;4.472;2023-06-04T07:42:50;16.80;99.90
8832;DHT22;4452;50.756;4.472;2023-06-04T07:45:16;16.80;99.90
8832;DHT22;4452;50.756;4.472;2023-06-04T07:47:43;16.80;99.90
8832;DHT22;4452;50.756;4.472;2023-06-04T07:50:08;16.80;99.90
8832;DHT22;4452;50.756;4.472;2023-06-04T07:52:34;17.10;99.90
8832;DHT22;4452;50.756;4.472;2023-06-04T07:55:00;17.10;99.90
8832;DHT22;4452;50.756;4.472;2023-06-04T07:57:26;17.10;99.90
8832;DHT22;4452;50.756;4.472;2023-06-04T07:59:51;17.40;99.90
8832;DHT22;4452;50.756;4.472;2023-06-04T08:02:17;17.60;99.90
8832;DHT22;4452;50.756;4.472;2023-06-04T08:04:44;17.60;99.90
8832;DHT22;4452;50.756;4.472;2023-06-04T08:07:10;17.70;99.90
8832;DHT22;4452;50.756;4.472;2023-06-04T08:09:36;17.60;99.90
8832;DHT22;4452;50.756;4.472;2023-06-04T08:12:02;17.60;99.90
8832;DHT22;4452;50.756;4.472;2023-06-04T08:14:27;17.70;99.90
8832;DHT22;4452;50.756;4.472;2023-06-04T08:16:53;17.40;99.90
8832;DHT22;4452;50.756;4.472;2023-06-04T08:19:19;17.80;99.90
8832;DHT22;4452;50.756;4.472;2023-06-04T08:21:45;17.90;99.90
8832;DHT22;4452;50.756;4.472;2023-06-04T08:24:12;18.20;99.90
8832;DHT22;4452;50.756;4.472;2023-06-04T08:26:38;18.20;99.90
8832;DHT22;4452;50.756;4.472;2023-06-04T08:29:05;18.30;99.90
8832;DHT22;4452;50.756;4.472;2023-06-04T08:31:32;18.40;99.90
8832;DHT22;4452;50.756;4.472;2023-06-04T08:33:58;18.40;99.90
8832;DHT22;4452;50.756;4.472;2023-06-04T08:36:24;18.40;99.90
8832;DHT22;4452;50.756;4.472;2023-06-04T08:38:50;18.50;99.90
8832;DHT22;4452;50.756;4.472;2023-06-04T08:41:46;19.10;99.90
8832;DHT22;4452;50.756;4.472;2023-06-04T08:44:16;18.80;99.90
8832;DHT22;4452;50.756;4.472;2023-06-04T08:46:43;19.10;99.90
8832;DHT22;4452;50.756;4.472;2023-06-04T08:49:09;18.80;99.90
8832;DHT22;4452;50.756;4.472;2023-06-04T08:51:37;19.20;99.90
8832;DHT22;4452;50.756;4.472;2023-06-04T08:54:07;19.40;99.90
8832;DHT22;4452;50.756;4.472;2023-06-04T08:56:34;18.90;99.90
8832;DHT22;4452;50.756;4.472;2023-06-04T08:59:02;19.20;99.90
8832;DHT22;4452;50.756;4.472;2023-06-04T09:01:30;19.30;99.90
8832;DHT22;4452;50.756;4.472;2023-06-04T09:03:57;19.30;99.90
8832;DHT22;4452;50.756;4.472;2023-06-04T09:06:26;19.40;99.90
8832;DHT22;4452;50.756;4.472;2023-06-04T09:08:54;19.50;99.90
8832;DHT22;4452;50.756;4.472;2023-06-04T09:11:24;19.60;99.90
8832;DHT22;4452;50.756;4.472;2023-06-04T09:13:53;19.80;99.90
8832;DHT22;4452;50.756;4.472;2023-06-04T09:16:18;20.10;99.90
8832;DHT22;4452;50.756;4.472;2023-06-04T09:18:44;19.80;99.90
8832;DHT22;4452;50.756;4.472;2023-06-04T09:21:10;20.10;99.90
8832;DHT22;4452;50.756;4.472;2023-06-04T09:23:46;20.20;99.90
8832;DHT22;4452;50.756;4.472;2023-06-04T09:26:12;20.10;99.90
8832;DHT22;4452;50.756;4.472;2023-06-04T09:28:43;20.20;99.90
8832;DHT22;4452;50.756;4.472;2023-06-04T09:31:09;20.30;99.90
8832;DHT22;4452;50.756;4.472;2023-06-04T09:33:49;20.30;99.90
8832;DHT22;4452;50.756;4.472;2023-06-04T09:36:16;20.40;99.90
8832;DHT22;4452;50.756;4.472;2023-06-04T09:38:42;20.30;99.90
8832;DHT22;4452;50.756;4.472;2023-06-04T09:41:14;20.40;99.90
8832;DHT22;4452;50.756;4.472;2023-06-04T09:43:40;20.50;99.90
8832;DHT22;4452;50.756;4.472;2023-06-04T09:46:10;20.50;99.00
8832;DHT22;4452;50.756;4.472;2023-06-04T09:48:37;20.80;99.90
8832;DHT22;4452;50.756;4.472;2023-06-04T09:51:10;20.50;98.90
8832;DHT22;4452;50.756;4.472;2023-06-04T09:53:37;20.90;99.90
8832;DHT22;4452;50.756;4.472;2023-06-04T09:56:04;21.00;99.90
8832;DHT22;4452;50.756;4.472;2023-06-04T09:58:32;20.80;98.90
8832;DHT22;4452;50.756;4.472;2023-06-04T10:00:59;21.10;99.90
8832;DHT22;4452;50.756;4.472;2023-06-04T10:03:25;21.10;99.30
8832;DHT22;4452;50.756;4.472;2023-06-04T10:06:00;21.40;99.90
8832;DHT22;4452;50.756;4.472;2023-06-04T10:08:27;20.90;96.50
8832;DHT22;4452;50.756;4.472;2023-06-04T10:10:59;20.60;97.10
8832;DHT22;4452;50.756;4.472;2023-06-04T10:13:31;20.90;97.20
8832;DHT22;4452;50.756;4.472;2023-06-04T10:16:01;20.90;96.60
8832;DHT22;4452;50.756;4.472;2023-06-04T10:18:28;21.40;98.60
8832;DHT22;4452;50.756;4.472;2023-06-04T10:20:57;21.40;98.50
8832;DHT22;4452;50.756;4.472;2023-06-04T10:23:24;21.60;96.90
8832;DHT22;4452;50.756;4.472;2023-06-04T10:25:51;21.40;96.40
8832;DHT22;4452;50.756;4.472;2023-06-04T10:28:22;21.50;96.30
8832;DHT22;4452;50.756;4.472;2023-06-04T10:30:48;21.50;96.10
8832;DHT22;4452;50.756;4.472;2023-06-04T10:33:20;21.30;96.70
8832;DHT22;4452;50.756;4.472;2023-06-04T10:35:50;21.60;96.30
8832;DHT22;4452;50.756;4.472;2023-06-04T10:38:15;21.80;97.70
8832;DHT22;4452;50.756;4.472;2023-06-04T10:40:46;22.00;96.10
8832;DHT22;4452;50.756;4.472;2023-06-04T10:43:12;21.80;96.20
8832;DHT22;4452;50.756;4.472;2023-06-04T10:45:39;22.00;95.90
8832;DHT22;4452;50.756;4.472;2023-06-04T10:48:06;22.00;95.80
8832;DHT22;4452;50.756;4.472;2023-06-04T10:50:33;21.70;95.10
8832;DHT22;4452;50.756;4.472;2023-06-04T10:53:00;22.00;94.90
8832;DHT22;4452;50.756;4.472;2023-06-04T10:55:31;22.10;96.60
8832;DHT22;4452;50.756;4.472;2023-06-04T10:57:58;22.10;94.50
8832;DHT22;4452;50.756;4.472;2023-06-04T11:00:41;22.40;95.50
8832;DHT22;4452;50.756;4.472;2023-06-04T11:03:09;22.90;95.60
8832;DHT22;4452;50.756;4.472;2023-06-04T11:08:05;22.30;93.60
8832;DHT22;4452;50.756;4.472;2023-06-04T11:10:36;22.50;95.80
8832;DHT22;4452;50.756;4.472;2023-06-04T11:13:02;22.50;93.10
8832;DHT22;4452;50.756;4.472;2023-06-04T11:15:39;22.80;95.40
8832;DHT22;4452;50.756;4.472;2023-06-04T11:18:05;22.90;94.80
8832;DHT22;4452;50.756;4.472;2023-06-04T11:20:31;22.40;92.10
8832;DHT22;4452;50.756;4.472;2023-06-04T11:22:59;22.50;90.50
8832;DHT22;4452;50.756;4.472;2023-06-04T11:25:30;22.50;93.40
8832;DHT22;4452;50.756;4.472;2023-06-04T11:28:01;22.40;93.10
8832;DHT22;4452;50.756;4.472;2023-06-04T11:30:31;22.50;94.00
8832;DHT22;4452;50.756;4.472;2023-06-04T11:33:06;22.60;93.80
8832;DHT22;4452;50.756;4.472;2023-06-04T11:35:43;22.90;95.10
8832;DHT22;4452;50.756;4.472;2023-06-04T11:38:10;22.90;94.60
8832;DHT22;4452;50.756;4.472;2023-06-04T11:40:36;23.40;96.20
8832;DHT22;4452;50.756;4.472;2023-06-04T11:43:02;23.20;91.70
8832;DHT22;4452;50.756;4.472;2023-06-04T11:45:28;23.00;92.00
8832;DHT22;4452;50.756;4.472;2023-06-04T11:47:56;23.10;92.60
8832;DHT22;4452;50.756;4.472;2023-06-04T11:50:25;23.10;92.30
8832;DHT22;4452;50.756;4.472;2023-06-04T11:52:52;22.90;92.80
8832;DHT22;4452;50.756;4.472;2023-06-04T11:55:19;22.90;90.90
8832;DHT22;4452;50.756;4.472;2023-06-04T11:57:48;23.00;91.80
8832;DHT22;4452;50.756;4.472;2023-06-04T12:00:15;23.30;91.10
8832;DHT22;4452;50.756;4.472;2023-06-04T12:02:53;23.40;91.70
8832;DHT22;4452;50.756;4.472;2023-06-04T12:05:20;23.30;90.20
8832;DHT22;4452;50.756;4.472;2023-06-04T12:07:49;23.10;91.80
8832;DHT22;4452;50.756;4.472;2023-06-04T12:10:18;23.40;92.30
8832;DHT22;4452;50.756;4.472;2023-06-04T12:12:44;23.50;91.00
8832;DHT22;4452;50.756;4.472;2023-06-04T12:15:10;23.60;93.30
8832;DHT22;4452;50.756;4.472;2023-06-04T12:17:52;23.90;92.00
8832;DHT22;4452;50.756;4.472;2023-06-04T12:20:39;24.30;91.30
8832;DHT22;4452;50.756;4.472;2023-06-04T12:23:06;24.30;90.80
8832;DHT22;4452;50.756;4.472;2023-06-04T12:25:32;23.70;90.40
8832;DHT22;4452;50.756;4.472;2023-06-04T12:27:58;24.40;92.90
8832;DHT22;4452;50.756;4.472;2023-06-04T12:30:34;24.10;91.90
8832;DHT22;4452;50.756;4.472;2023-06-04T12:33:00;23.70;91.00
8832;DHT22;4452;50.756;4.472;2023-06-04T12:35:25;23.30;89.80
8832;DHT22;4452;50.756;4.472;2023-06-04T12:37:51;24.00;92.70
8832;DHT22;4452;50.756;4.472;2023-06-04T12:40:17;24.30;89.50
8832;DHT22;4452;50.756;4.472;2023-06-04T12:42:42;24.90;91.40
8832;DHT22;4452;50.756;4.472;2023-06-04T12:45:09;24.00;87.90
8832;DHT22;4452;50.756;4.472;2023-06-04T12:47:35;24.10;90.20
8832;DHT22;4452;50.756;4.472;2023-06-04T12:50:01;24.90;91.00
8832;DHT22;4452;50.756;4.472;2023-06-04T12:52:26;24.60;89.70
8832;DHT22;4452;50.756;4.472;2023-06-04T12:54:52;24.70;90.90
8832;DHT22;4452;50.756;4.472;2023-06-04T12:57:18;24.80;89.50
8832;DHT22;4452;50.756;4.472;2023-06-04T12:59:43;25.10;90.30
8832;DHT22;4452;50.756;4.472;2023-06-04T13:02:09;25.20;90.60
8832;DHT22;4452;50.756;4.472;2023-06-04T13:04:35;25.50;89.90
8832;DHT22;4452;50.756;4.472;2023-06-04T13:07:00;25.90;90.00
8832;DHT22;4452;50.756;4.472;2023-06-04T13:09:26;25.60;89.70
8832;DHT22;4452;50.756;4.472;2023-06-04T13:11:56;25.50;82.90
8832;DHT22;4452;50.756;4.472;2023-06-04T13:14:21;25.70;84.10
8832;DHT22;4452;50.756;4.472;2023-06-04T13:16:47;25.70;81.60
8832;DHT22;4452;50.756;4.472;2023-06-04T13:19:14;25.30;82.20
8832;DHT22;4452;50.756;4.472;2023-06-04T13:21:40;25.00;84.10
8832;DHT22;4452;50.756;4.472;2023-06-04T13:24:05;24.60;83.20
8832;DHT22;4452;50.756;4.472;2023-06-04T13:26:33;24.60;86.40
8832;DHT22;4452;50.756;4.472;2023-06-04T13:28:58;24.80;85.60
8832;DHT22;4452;50.756;4.472;2023-06-04T13:31:24;25.10;85.90
8832;DHT22;4452;50.756;4.472;2023-06-04T13:33:49;25.50;85.80
8832;DHT22;4452;50.756;4.472;2023-06-04T13:36:15;25.50;84.20
8832;DHT22;4452;50.756;4.472;2023-06-04T13:38:41;25.20;81.50
8832;DHT22;4452;50.756;4.472;2023-06-04T13:41:08;25.50;84.50
8832;DHT22;4452;50.756;4.472;2023-06-04T13:43:34;25.60;88.70
8832;DHT22;4452;50.756;4.472;2023-06-04T13:46:00;25.70;86.60
8832;DHT22;4452;50.756;4.472;2023-06-04T13:48:25;25.80;84.00
8832;DHT22;4452;50.756;4.472;2023-06-04T13:50:53;25.80;82.80
8832;DHT22;4452;50.756;4.472;2023-06-04T13:53:22;25.50;80.40
8832;DHT22;4452;50.756;4.472;2023-06-04T13:55:50;25.20;79.00
8832;DHT22;4452;50.756;4.472;2023-06-04T13:58:25;25.90;85.80
8832;DHT22;4452;50.756;4.472;2023-06-04T14:00:51;26.30;81.50
8832;DHT22;4452;50.756;4.472;2023-06-04T14:03:17;26.40;79.10
8832;DHT22;4452;50.756;4.472;2023-06-04T14:05:42;26.30;81.30
8832;DHT22;4452;50.756;4.472;2023-06-04T14:08:08;26.60;78.70
8832;DHT22;4452;50.756;4.472;2023-06-04T14:10:34;26.80;79.70
8832;DHT22;4452;50.756;4.472;2023-06-04T14:13:01;26.90;81.10
8832;DHT22;4452;50.756;4.472;2023-06-04T14:15:27;27.60;78.20
8832;DHT22;4452;50.756;4.472;2023-06-04T14:17:52;27.30;76.90
8832;DHT22;4452;50.756;4.472;2023-06-04T14:20:18;27.10;76.00
8832;DHT22;4452;50.756;4.472;2023-06-04T14:22:44;26.30;80.00
8832;DHT22;4452;50.756;4.472;2023-06-04T14:25:09;26.30;79.30
8832;DHT22;4452;50.756;4.472;2023-06-04T14:27:35;25.70;79.10
8832;DHT22;4452;50.756;4.472;2023-06-04T14:30:04;25.80;77.60
8832;DHT22;4452;50.756;4.472;2023-06-04T14:32:30;26.00;76.90
8832;DHT22;4452;50.756;4.472;2023-06-04T14:34:57;26.60;81.10
8832;DHT22;4452;50.756;4.472;2023-06-04T14:37:23;26.60;76.50
8832;DHT22;4452;50.756;4.472;2023-06-04T14:39:49;26.20;76.20
8832;DHT22;4452;50.756;4.472;2023-06-04T14:42:16;26.90;79.40
8832;DHT22;4452;50.756;4.472;2023-06-04T14:44:41;26.60;74.10
8832;DHT22;4452;50.756;4.472;2023-06-04T14:47:07;26.80;76.70
8832;DHT22;4452;50.756;4.472;2023-06-04T14:49:33;27.20;78.00
8832;DHT22;4452;50.756;4.472;2023-06-04T14:51:59;26.90;76.10
8832;DHT22;4452;50.756;4.472;2023-06-04T14:54:25;27.00;76.30
8832;DHT22;4452;50.756;4.472;2023-06-04T14:56:51;27.10;77.90
8832;DHT22;4452;50.756;4.472;2023-06-04T14:59:17;26.80;74.40
8832;DHT22;4452;50.756;4.472;2023-06-04T15:01:43;27.20;77.50
8832;DHT22;4452;50.756;4.472;2023-06-04T15:04:09;27.50;76.00
8832;DHT22;4452;50.756;4.472;2023-06-04T15:06:35;28.30;73.40
8832;DHT22;4452;50.756;4.472;2023-06-04T15:09:01;27.80;76.30
8832;DHT22;4452;50.756;4.472;2023-06-04T15:11:27;28.30;75.70
8832;DHT22;4452;50.756;4.472;2023-06-04T15:13:53;28.40;75.20
8832;DHT22;4452;50.756;4.472;2023-06-04T15:16:19;27.70;70.00
8832;DHT22;4452;50.756;4.472;2023-06-04T15:18:46;27.60;70.50
8832;DHT22;4452;50.756;4.472;2023-06-04T15:21:11;26.90;71.50
8832;DHT22;4452;50.756;4.472;2023-06-04T15:23:37;27.30;73.40
8832;DHT22;4452;50.756;4.472;2023-06-04T15:26:03;27.70;73.60
8832;DHT22;4452;50.756;4.472;2023-06-04T15:28:28;27.90;73.10
8832;DHT22;4452;50.756;4.472;2023-06-04T15:30:54;27.30;70.20
8832;DHT22;4452;50.756;4.472;2023-06-04T15:33:20;27.60;71.80
8832;DHT22;4452;50.756;4.472;2023-06-04T15:35:45;27.70;70.90
8832;DHT22;4452;50.756;4.472;2023-06-04T15:38:11;26.80;70.20
8832;DHT22;4452;50.756;4.472;2023-06-04T15:40:37;27.80;70.20
8832;DHT22;4452;50.756;4.472;2023-06-04T15:43:02;26.80;72.00
8832;DHT22;4452;50.756;4.472;2023-06-04T15:45:28;27.20;72.30
8832;DHT22;4452;50.756;4.472;2023-06-04T15:47:54;28.20;73.80
8832;DHT22;4452;50.756;4.472;2023-06-04T15:50:19;28.10;69.30
8832;DHT22;4452;50.756;4.472;2023-06-04T15:52:45;26.90;69.90
8832;DHT22;4452;50.756;4.472;2023-06-04T15:55:11;27.10;68.70
8832;DHT22;4452;50.756;4.472;2023-06-04T15:57:38;27.40;71.40
8832;DHT22;4452;50.756;4.472;2023-06-04T16:00:04;27.10;67.60
8832;DHT22;4452;50.756;4.472;2023-06-04T16:02:30;27.10;67.40
8832;DHT22;4452;50.756;4.472;2023-06-04T16:04:56;27.10;68.70
8832;DHT22;4452;50.756;4.472;2023-06-04T16:07:22;27.30;70.80